SARE/RES METAR and TAF weather

Enter ICAO airport designator
Station Type Date Time Source
SARE METAR 2021/07/26 12:00 UTC NOAA

SARE 261200Z 20010KT 3500 BR FU OVC007 15/14 Q1009


Station Type Date Time Source
SARE Decoded METAR 2021/07/26 12:00 UTC NOAA

Resistencia Aero., Argentina (SARE) 27-27S 059-03W 52M
Jul 26, 2021 - 08:00 AM EDT / 2021.07.26 1200 UTC
Wind: from the SSW (200 degrees) at 12 MPH (10 KT):0
Visibility: 2 mile(s):0
Sky conditions: overcast
Weather: mist; smoke
Temperature: 59 F (15 C)
Dew Point: 57 F (14 C)
Relative Humidity: 93%
Pressure (altimeter): 29.80 in. Hg (1009 hPa)
ob: SARE 261200Z 20010KT 3500 BR FU OVC007 15/14 Q1009
cycle: 12

Station Type Date Time Source
SARE TAF 2021/07/26 12:21 UTC NOAA

TAF SARE 261100Z 2612/2712 18010KT 9999 BKN010 TX15/2609Z TN12/2709Z PROB40 2614/2619 7000 -TSRA BKN008 OVC040 FEW050CB
BECMG 2620/2621 8000 -RA OVC006
BECMG 2702/2703 18020KT CAVOK

Example: see airport list